Scipio, Indiana
Current Conditions -  °F | °C
As of 6:48 AM on Friday 21 Nov 2014 (Local Time) from KBAK Reporting Station
Clear Clear  
Wind Chill: 16°   Ceiling: Unl
Heat Index: 16°   Visibility: 10mi
Dew Point: 10°   Wind: 0mph
Humidity: 79%   Direction: NA
Pressure: 30.45"   Gusts: NA
Location:  39.08°N, 85.72°W
Report Text: KBAK 211148Z 00000KT 10SM SKC M09/M12 A3045
Loading
Personal Weather Stations






























Interactive Weather Map New forecast layout! Learn more

10-Day Weather Forecast

Advertisements
Track Severe Weather on mobile